Time;durP1;ratioP1;P1;durP2;ratioP2;P2;SDS_P1;SDS_P2;PMS_P1;PMS_P2;Temp;Humidity;BMP_temperature;BMP_pressure;BME280_temperature;BME280_humidity;BME280_pressure;Samples;Min_cycle;Max_cycle;Signal;HPM_P1;HPM_P2
2023/03/20 00:05:32;;;;;;;55.60;29.80;;;;;;;5.29;61.46;98525.41;434109;1254;107328;-40
2023/03/20 00:15:42;;;;;;;72.40;34.90;;;;;;;5.61;61.37;98522.27;434352;1254;98541;-41
2023/03/20 00:25:50;;;;;;;63.50;33.80;;;;;;;5.77;61.44;98518.38;434277;1257;112963;-41
2023/03/20 00:46:03;;;;;;;68.50;35.30;;;;;;;5.80;61.29;98515.92;434315;1257;98027;-41
2023/03/20 01:06:36;;;;;;;63.20;31.90;;;;;;;5.70;61.55;98512.86;434249;1257;109325;-40
2023/03/20 01:16:44;;;;;;;60.00;30.60;;;;;;;5.72;61.65;98502.60;434427;1255;101527;-40
2023/03/20 01:36:59;;;;;;;60.90;31.00;;;;;;;5.81;61.81;98506.59;434281;1257;107532;-40
2023/03/20 01:57:20;;;;;;;45.20;24.10;;;;;;;5.96;61.95;98498.80;434325;1254;110200;-41
2023/03/20 02:07:27;;;;;;;57.30;29.70;;;;;;;6.00;62.09;98499.68;434191;1257;108201;-40
2023/03/20 02:17:34;;;;;;;57.60;31.80;;;;;;;5.92;62.37;98503.59;434178;1254;99266;-41
2023/03/20 02:27:45;;;;;;;53.70;28.90;;;;;;;5.83;62.42;98506.59;434218;1254;107280;-40
2023/03/20 02:38:29;;;;;;;51.70;30.10;;;;;;;5.76;62.54;98506.48;435549;1253;99231;-40
2023/03/20 02:58:46;;;;;;;57.30;27.60;;;;;;;5.67;62.97;98511.50;435033;1253;107425;-41
2023/03/20 03:08:58;;;;;;;40.80;25.00;;;;;;;5.76;63.13;98505.42;434978;1256;99239;-40
2023/03/20 03:19:05;;;;;;;37.20;20.90;;;;;;;5.89;63.30;98508.45;434983;1255;106898;-42
2023/03/20 03:29:14;;;;;;;50.80;29.20;;;;;;;5.99;63.52;98509.53;434988;1256;99272;-41
2023/03/20 03:49:30;;;;;;;51.20;29.30;;;;;;;6.11;63.87;98502.67;434890;1255;108854;-40
2023/03/20 03:59:38;;;;;;;50.20;28.60;;;;;;;6.13;63.96;98499.24;435237;1253;97997;-41
2023/03/20 04:09:45;;;;;;;53.50;30.50;;;;;;;6.17;64.12;98505.92;435045;1253;108253;-40
2023/03/20 04:19:50;;;;;;;54.80;29.80;;;;;;;6.19;64.29;98506.69;434948;1253;99193;-40
2023/03/20 04:29:57;;;;;;;45.50;26.10;;;;;;;6.23;64.29;98503.61;434989;1255;111917;-40
2023/03/20 04:40:05;;;;;;;44.60;27.70;;;;;;;6.34;64.48;98510.64;434951;1256;107443;-41
2023/03/20 05:00:21;;;;;;;53.10;32.00;;;;;;;6.53;64.95;98514.36;435004;1256;107416;-40
2023/03/20 05:10:28;;;;;;;61.00;33.80;;;;;;;6.48;65.12;98513.54;435031;1257;99107;-41
2023/03/20 05:30:42;;;;;;;60.70;35.40;;;;;;;6.62;65.88;98531.36;435024;1257;106499;-41
2023/03/20 05:40:50;;;;;;;50.00;30.60;;;;;;;6.84;66.04;98544.35;434911;1256;99231;-41
2023/03/20 05:50:57;;;;;;;51.70;29.30;;;;;;;7.07;66.24;98548.43;435051;1259;112011;-40
2023/03/20 06:01:05;;;;;;;63.90;38.00;;;;;;;7.28;66.51;98546.18;434930;1253;107233;-40
2023/03/20 06:11:13;;;;;;;73.00;42.40;;;;;;;7.40;66.83;98548.77;435324;1259;99141;-40
2023/03/20 06:21:20;;;;;;;79.00;45.40;;;;;;;7.42;67.38;98554.29;434984;1257;108449;-40
2023/03/20 06:31:27;;;;;;;76.20;45.60;;;;;;;7.44;67.71;98560.88;434960;1259;97943;-41
2023/03/20 06:41:35;;;;;;;64.10;39.40;;;;;;;7.57;68.05;98569.79;435018;1259;112119;-41
2023/03/20 06:51:42;;;;;;;57.00;33.70;;;;;;;7.79;68.45;98576.28;434977;1257;107568;-40
2023/03/20 07:01:49;;;;;;;45.80;28.20;;;;;;;8.05;68.98;98584.70;435039;1259;98663;-40
2023/03/20 07:11:57;;;;;;;46.90;30.20;;;;;;;8.30;69.29;98586.08;435193;1254;108423;-40
2023/03/20 07:22:08;;;;;;;61.60;40.10;;;;;;;8.50;69.63;98590.10;435105;1253;99247;-41
2023/03/20 07:32:15;;;;;;;89.90;52.50;;;;;;;8.68;69.93;98598.12;435090;1256;111262;-40
2023/03/20 07:42:22;;;;;;;84.70;50.50;;;;;;;8.70;69.74;98603.81;434976;1256;107084;-41
2023/03/20 08:02:36;;;;;;;56.70;36.30;;;;;;;8.82;70.30;98611.96;434649;1261;109025;-41
2023/03/20 08:12:45;;;;;;;54.10;34.90;;;;;;;8.99;70.70;98616.95;434768;1257;99152;-41
2023/03/20 08:22:52;;;;;;;58.70;39.10;;;;;;;9.16;70.98;98622.48;434636;1256;111242;-40
2023/03/20 08:33:00;;;;;;;69.40;42.50;;;;;;;9.38;71.33;98617.99;434722;1258;108482;-41
2023/03/20 08:43:07;;;;;;;61.40;42.80;;;;;;;9.34;71.60;98613.59;434859;1257;99346;-41
2023/03/20 08:53:15;;;;;;;53.90;36.40;;;;;;;9.49;71.71;98619.77;434654;1253;109820;-40
2023/03/20 09:03:21;;;;;;;48.90;33.00;;;;;;;9.50;71.82;98629.51;434640;1259;98872;-41
2023/03/20 09:13:28;;;;;;;46.60;34.50;;;;;;;9.55;72.08;98631.39;434627;1253;110488;-41
2023/03/20 09:23:36;;;;;;;60.00;38.30;;;;;;;9.57;72.26;98631.85;434700;1257;108493;-41
2023/03/20 09:33:43;;;;;;;57.00;37.80;;;;;;;9.71;72.62;98628.29;434758;1257;98570;-41
2023/03/20 09:43:57;;;;;;;59.60;39.00;;;;;;;10.06;72.99;98626.70;434623;1258;108009;-41
2023/03/20 09:54:07;;;;;;;50.80;34.90;;;;;;;10.96;73.02;98627.03;434474;1267;99218;-42
2023/03/20 10:14:21;;;;;;;53.80;35.40;;;;;;;11.24;72.91;98627.55;434617;1257;108213;-40
2023/03/20 10:24:27;;;;;;;63.70;38.20;;;;;;;11.40;72.71;98620.26;434649;1257;99221;-42
2023/03/20 10:34:44;;;;;;;54.70;35.90;;;;;;;11.40;72.52;98623.44;434465;1257;109222;-41
2023/03/20 10:44:55;;;;;;;62.00;38.90;;;;;;;11.15;72.89;98622.83;434538;1257;99217;-41
2023/03/20 10:55:04;;;;;;;65.30;41.70;;;;;;;11.14;73.40;98625.50;434493;1257;112671;-41
2023/03/20 11:05:20;;;;;;;66.30;42.10;;;;;;;11.03;73.46;98624.43;434415;1257;108562;-40
2023/03/20 11:15:31;;;;;;;56.90;37.70;;;;;;;10.91;73.87;98627.39;434380;1252;99122;-41
2023/03/20 11:35:55;;;;;;;62.30;40.40;;;;;;;10.89;74.07;98620.27;434533;1255;99411;-41
2023/03/20 11:46:03;;;;;;;60.00;38.90;;;;;;;10.76;74.29;98618.76;434616;1266;110556;-41
2023/03/20 11:56:14;;;;;;;61.40;40.80;;;;;;;10.78;74.30;98607.53;434405;1267;107335;-40
2023/03/20 12:06:25;;;;;;;59.80;35.80;;;;;;;10.92;74.33;98594.95;434429;1257;98630;-40
2023/03/20 12:16:36;;;;;;;56.50;35.10;;;;;;;11.00;74.67;98589.13;434367;1254;107282;-40
2023/03/20 12:26:51;;;;;;;53.50;37.00;;;;;;;11.05;75.14;98582.34;434476;1266;98334;-40
2023/03/20 12:36:59;;;;;;;48.50;35.00;;;;;;;10.93;75.46;98584.42;434351;1258;110754;-41
2023/03/20 12:47:13;;;;;;;47.00;33.40;;;;;;;10.82;75.64;98581.21;434333;1259;106702;-41
2023/03/20 12:57:19;;;;;;;47.80;30.90;;;;;;;10.92;75.66;98572.23;434347;1253;99250;-41
2023/03/20 13:07:42;;;;;;;40.60;29.10;;;;;;;11.01;75.70;98573.27;434457;1254;107631;-40
2023/03/20 13:17:50;;;;;;;42.60;30.70;;;;;;;11.04;75.81;98567.71;434484;1254;99230;-41
2023/03/20 13:28:05;;;;;;;43.50;29.70;;;;;;;11.10;75.87;98559.27;434343;1257;111300;-42
2023/03/20 13:38:17;;;;;;;43.60;28.30;;;;;;;11.31;75.77;98557.14;434332;1254;108014;-39
2023/03/20 13:48:24;;;;;;;39.20;27.40;;;;;;;11.55;75.72;98548.20;434293;1258;99250;-41
2023/03/20 13:58:48;;;;;;;38.90;28.30;;;;;;;11.78;75.69;98550.10;434335;1257;107057;-41
2023/03/20 14:08:57;;;;;;;38.80;26.90;;;;;;;11.88;75.57;98549.50;434443;1257;98073;-41
2023/03/20 14:19:05;;;;;;;29.70;22.90;;;;;;;11.96;75.40;98541.67;434355;1257;112256;-41
2023/03/20 14:29:32;;;;;;;29.30;23.20;;;;;;;11.97;75.45;98537.77;434296;1258;107935;-40
2023/03/20 14:39:45;;;;;;;39.40;27.90;;;;;;;12.05;75.37;98537.73;434328;1253;99082;-43
2023/03/20 14:49:51;;;;;;;35.70;25.20;;;;;;;11.94;75.37;98533.96;434317;1257;107366;-40
2023/03/20 14:59:59;;;;;;;35.10;24.70;;;;;;;11.84;75.33;98525.73;434163;1266;99305;-41
2023/03/20 15:10:07;;;;;;;37.00;25.90;;;;;;;11.92;75.48;98522.38;434247;1266;111127;-46
2023/03/20 15:20:16;;;;;;;50.70;32.90;;;;;;;12.09;75.55;98517.45;434272;1257;107707;-41
2023/03/20 15:30:24;;;;;;;35.80;24.90;;;;;;;12.13;75.56;98505.23;434386;1253;97980;-39
2023/03/20 15:40:32;;;;;;;44.20;25.20;;;;;;;12.09;75.32;98508.11;434098;1253;477771;-41
2023/03/20 15:51:01;;;;;;;39.50;24.60;;;;;;;11.88;75.14;98505.05;434228;1257;99278;-41
2023/03/20 16:01:06;;;;;;;29.80;20.70;;;;;;;11.87;75.18;98506.52;434230;1257;113141;-41
2023/03/20 16:11:12;;;;;;;31.10;20.50;;;;;;;11.83;75.17;98511.52;434400;1257;107509;-41
2023/03/20 16:21:17;;;;;;;47.40;28.20;;;;;;;11.63;75.26;98503.16;434428;1256;99308;-40
2023/03/20 16:31:28;;;;;;;82.60;52.30;;;;;;;11.37;75.12;98516.10;434214;1257;108409;-41
2023/03/20 16:41:38;;;;;;;39.30;27.00;;;;;;;11.08;75.09;98521.48;434058;1255;99240;-41
2023/03/20 16:51:44;;;;;;;47.60;30.10;;;;;;;10.79;75.28;98516.48;434200;1257;112156;-40
2023/03/20 17:01:53;;;;;;;59.60;37.20;;;;;;;10.54;75.56;98520.65;434161;1257;107602;-40
2023/03/20 17:11:59;;;;;;;64.80;42.00;;;;;;;10.16;75.69;98524.85;434493;1257;99240;-40
2023/03/20 17:22:10;;;;;;;79.40;44.30;;;;;;;9.90;75.94;98531.20;434161;1257;108989;-40
2023/03/20 17:52:37;;;;;;;89.20;51.50;;;;;;;9.98;76.77;98550.69;434276;1253;107703;-40
2023/03/20 18:02:44;;;;;;;56.30;36.80;;;;;;;10.01;76.95;98576.55;434323;1254;98777;-44
2023/03/20 18:12:51;;;;;;;16.60;11.90;;;;;;;9.49;77.71;98605.02;434354;1253;107273;-41
2023/03/20 18:22:59;;;;;;;37.20;20.70;;;;;;;8.85;77.66;98591.41;434194;1255;99231;-40
2023/03/20 18:33:07;;;;;;;33.80;18.70;;;;;;;8.54;77.76;98584.95;434344;1253;112047;-41
2023/03/20 18:43:15;;;;;;;22.50;14.40;;;;;;;8.46;78.46;98579.51;434191;1257;107765;-41
2023/03/20 18:53:21;;;;;;;23.70;12.90;;;;;;;8.49;78.74;98567.20;434260;1257;99227;-40
2023/03/20 19:03:28;;;;;;;58.70;27.50;;;;;;;8.35;78.62;98563.43;434242;1253;110878;-41
2023/03/20 19:13:36;;;;;;;47.00;24.20;;;;;;;8.22;78.80;98563.96;434264;1257;98840;-41
2023/03/20 19:23:43;;;;;;;50.30;28.50;;;;;;;8.17;79.06;98567.70;434258;1252;112667;-43
2023/03/20 19:33:50;;;;;;;27.40;17.70;;;;;;;8.10;79.39;98575.02;434436;1252;108234;-41
2023/03/20 19:43:58;;;;;;;23.70;15.90;;;;;;;8.01;79.40;98572.71;434262;1257;99249;-40
2023/03/20 19:54:04;;;;;;;36.40;20.10;;;;;;;8.00;79.56;98570.58;434289;1253;107654;-41
2023/03/20 20:04:11;;;;;;;35.30;22.30;;;;;;;8.04;79.93;98568.77;434304;1253;99262;-41
2023/03/20 20:14:18;;;;;;;27.60;18.40;;;;;;;8.20;80.33;98552.27;434199;1257;111151;-41
2023/03/20 20:24:30;;;;;;;20.80;15.90;;;;;;;8.36;80.63;98553.73;434369;1257;108518;-43
2023/03/20 20:45:04;;;;;;;78.50;37.40;;;;;;;8.48;81.06;98563.63;434389;1257;108713;-41
2023/03/20 20:55:14;;;;;;;50.30;27.40;;;;;;;8.56;81.18;98563.73;434214;1257;99672;-40
2023/03/20 21:05:29;;;;;;;26.40;20.90;;;;;;;8.60;81.37;98566.86;434386;1253;112179;-41
2023/03/20 21:15:37;;;;;;;35.90;23.40;;;;;;;8.56;81.30;98570.34;434116;1253;108113;-41
2023/03/20 21:25:46;;;;;;;54.30;31.70;;;;;;;8.53;81.58;98568.55;434373;1257;99231;-40
2023/03/20 21:35:55;;;;;;;30.30;22.60;;;;;;;8.49;81.74;98561.35;434480;1253;108471;-40
2023/03/20 21:46:02;;;;;;;53.10;29.70;;;;;;;8.43;81.95;98565.42;434315;1253;99219;-41
2023/03/20 21:56:30;;;;;;;77.70;37.90;;;;;;;8.42;82.02;98566.58;434473;1256;112650;-41
2023/03/20 22:17:26;;;;;;;37.20;24.00;;;;;;;8.48;82.44;98554.84;434475;1257;99221;-39
2023/03/20 22:27:53;;;;;;;35.90;25.40;;;;;;;8.47;82.60;98556.23;434320;1257;108229;-42
2023/03/20 22:38:20;;;;;;;78.00;39.10;;;;;;;8.47;82.74;98557.60;434460;1257;99088;-40
2023/03/20 22:48:47;;;;;;;78.90;39.10;;;;;;;8.53;82.87;98558.91;434453;1254;111635;-41
2023/03/20 22:58:54;;;;;;;39.60;25.30;;;;;;;8.56;82.94;98555.30;434592;1253;107454;-40
2023/03/20 23:09:02;;;;;;;35.90;24.80;;;;;;;8.54;83.18;98553.55;434434;1255;99247;-38
2023/03/20 23:19:19;;;;;;;;;;;;;;;8.55;83.32;98555.68;434624;1257;108074;-40
2023/03/20 23:29:25;;;;;;;36.70;24.60;;;;;;;8.53;83.61;98556.91;434573;1257;98009;-41
2023/03/20 23:39:32;;;;;;;42.80;28.90;;;;;;;8.53;83.52;98556.23;434574;1257;110959;-39
2023/03/20 23:49:40;;;;;;;47.00;28.50;;;;;;;8.53;83.68;98556.71;434505;1253;106452;-39
2023/03/20 23:59:46;;;;;;;45.40;28.70;;;;;;;8.51;83.91;98554.98;434605;1253;101525;-40
